Time;durP1;ratioP1;P1;durP2;ratioP2;P2;SDS_P1;SDS_P2;PMS_P1;PMS_P2;Temp;Humidity;BMP_temperature;BMP_pressure;BME280_temperature;BME280_humidity;BME280_pressure;Samples;Min_cycle;Max_cycle;Signal;HPM_P1;HPM_P2
2021/12/30 00:00:21;;;;;;;55.28;8.20;;;;;;;9.59;100.00;100938.34;5032683;28;20477;-44
2021/12/30 00:02:46;;;;;;;64.43;9.75;;;;;;;9.63;100.00;100936.13;5031906;28;20064;-45
2021/12/30 00:05:13;;;;;;;67.22;10.27;;;;;;;9.63;100.00;100946.88;5031951;28;20034;-43
2021/12/30 00:07:39;;;;;;;75.78;11.70;;;;;;;9.65;100.00;100947.56;5032333;28;20097;-43
2021/12/30 00:10:05;;;;;;;67.13;10.38;;;;;;;9.66;100.00;100947.38;5027785;28;20034;-46
2021/12/30 00:12:30;;;;;;;57.05;9.50;;;;;;;9.70;100.00;100944.34;5031939;28;20040;-45
2021/12/30 00:14:56;;;;;;;67.43;11.13;;;;;;;9.71;100.00;100936.09;5031962;28;20022;-43
2021/12/30 00:17:21;;;;;;;80.80;12.15;;;;;;;9.75;100.00;100942.81;5035818;28;20033;-44
2021/12/30 00:19:46;;;;;;;72.13;11.00;;;;;;;9.79;100.00;100951.34;5050121;28;20051;-46
2021/12/30 00:22:12;;;;;;;83.45;11.05;;;;;;;9.80;100.00;100945.00;5032103;28;20532;-44
2021/12/30 00:24:37;;;;;;;87.03;12.90;;;;;;;9.79;100.00;100949.50;5029577;28;20083;-43
2021/12/30 00:27:02;;;;;;;89.72;13.38;;;;;;;9.79;100.00;100944.13;5031896;28;20047;-44
2021/12/30 00:29:28;;;;;;;90.22;15.05;;;;;;;9.80;100.00;100939.59;5031805;28;20116;-44
2021/12/30 00:31:53;;;;;;;94.32;12.85;;;;;;;9.82;100.00;100942.94;5031990;28;20029;-44
2021/12/30 00:34:19;;;;;;;88.05;13.13;;;;;;;9.82;100.00;100942.94;5032139;28;20033;-45
2021/12/30 00:36:44;;;;;;;108.15;15.05;;;;;;;9.81;100.00;100949.34;5031804;28;20477;-46
2021/12/30 00:39:09;;;;;;;93.30;13.93;;;;;;;9.82;100.00;100956.38;5032063;28;20079;-45
2021/12/30 00:41:35;;;;;;;90.07;14.77;;;;;;;9.85;100.00;100950.69;5017960;28;20398;-45
2021/12/30 00:44:01;;;;;;;103.50;14.20;;;;;;;9.85;100.00;100951.50;5022886;28;20553;-44
2021/12/30 00:46:26;;;;;;;104.60;13.60;;;;;;;9.86;100.00;100953.19;5031705;28;20033;-44
2021/12/30 00:48:52;;;;;;;94.75;12.98;;;;;;;9.88;100.00;100958.38;5014187;28;20025;-43
2021/12/30 00:51:17;;;;;;;90.15;12.07;;;;;;;9.89;100.00;100960.06;5031645;28;20036;-45
2021/12/30 00:53:42;;;;;;;88.38;13.30;;;;;;;9.90;100.00;100951.00;5031932;28;20026;-44
2021/12/30 00:56:08;;;;;;;76.07;12.90;;;;;;;9.92;100.00;100958.88;5029182;28;20069;-44
2021/12/30 00:58:33;;;;;;;79.53;13.05;;;;;;;9.92;100.00;100950.81;5031682;28;20026;-46
2021/12/30 01:00:59;;;;;;;66.75;11.68;;;;;;;9.93;100.00;100965.94;5031671;28;20041;-44
2021/12/30 01:03:25;;;;;;;69.70;11.32;;;;;;;9.96;100.00;100960.22;5031723;28;20440;-44
2021/12/30 01:05:51;;;;;;;59.47;10.90;;;;;;;9.99;100.00;100952.63;5030945;28;20029;-43
2021/12/30 01:08:16;;;;;;;56.53;12.52;;;;;;;10.02;100.00;100959.50;5032602;28;20512;-45
2021/12/30 01:10:43;;;;;;;55.60;11.85;;;;;;;10.06;100.00;100955.47;5035287;28;20117;-47
2021/12/30 01:13:15;;;;;;;59.83;10.88;;;;;;;10.15;100.00;100940.94;5027017;28;20120;-45
2021/12/30 01:15:48;;;;;;;64.88;11.90;;;;;;;10.17;100.00;100938.91;5034831;28;20387;-46
2021/12/30 01:20:47;;;;;;;58.28;10.65;;;;;;;10.26;100.00;100951.28;5015792;28;20033;-45
2021/12/30 01:23:13;;;;;;;58.92;11.32;;;;;;;10.27;100.00;100949.47;5016591;28;20029;-42
2021/12/30 01:25:39;;;;;;;55.20;11.00;;;;;;;10.29;100.00;100961.75;5033823;28;20102;-45
2021/12/30 01:28:04;;;;;;;52.22;11.10;;;;;;;10.30;100.00;100963.41;5032575;28;20025;-45
2021/12/30 01:30:29;;;;;;;54.78;11.57;;;;;;;10.31;100.00;100973.16;5035519;28;20538;-45
2021/12/30 01:32:54;;;;;;;55.85;12.02;;;;;;;10.33;100.00;100976.50;5035056;28;20458;-45
2021/12/30 01:35:23;;;;;;;45.67;11.18;;;;;;;10.37;100.00;100989.59;5035075;28;20064;-45
2021/12/30 01:37:50;;;;;;;48.28;10.82;;;;;;;10.36;100.00;101004.06;5034903;28;20037;-45
2021/12/30 01:40:17;;;;;;;42.05;10.27;;;;;;;10.37;100.00;100994.97;5034884;28;20025;-45
2021/12/30 01:42:42;;;;;;;46.33;10.05;;;;;;;10.33;100.00;100989.13;5034665;28;20112;-44
2021/12/30 01:45:09;;;;;;;41.58;10.75;;;;;;;10.30;100.00;100990.31;5020005;28;20112;-47
2021/12/30 01:47:35;;;;;;;51.60;10.13;;;;;;;10.32;100.00;100993.66;5016509;28;20482;-45
2021/12/30 01:50:01;;;;;;;49.67;11.55;;;;;;;10.28;100.00;101005.78;5034697;28;20064;-45
2021/12/30 01:52:26;;;;;;;55.70;13.27;;;;;;;10.28;100.00;101002.25;5035151;28;20108;-41
2021/12/30 01:54:51;;;;;;;54.25;12.88;;;;;;;10.25;100.00;101006.13;5034634;28;20064;-45
2021/12/30 01:57:17;;;;;;;46.70;11.13;;;;;;;10.25;100.00;100998.03;5034201;28;20100;-44
2021/12/30 01:59:42;;;;;;;49.60;13.80;;;;;;;10.23;100.00;100993.84;5027896;28;20386;-42
2021/12/30 02:02:08;;;;;;;48.78;12.82;;;;;;;10.22;100.00;101005.63;5034455;28;20196;-45
2021/12/30 02:04:33;;;;;;;45.33;12.38;;;;;;;10.20;100.00;101000.41;5034355;28;20041;-44
2021/12/30 02:06:59;;;;;;;64.88;13.82;;;;;;;10.19;100.00;100998.75;5034235;28;20068;-44
2021/12/30 02:09:25;;;;;;;44.00;12.57;;;;;;;10.18;100.00;101004.28;5033827;28;20468;-44
2021/12/30 02:11:50;;;;;;;61.03;13.52;;;;;;;10.15;100.00;100997.41;5034305;28;20036;-44
2021/12/30 02:14:16;;;;;;;81.43;13.88;;;;;;;10.14;100.00;100993.06;5033735;28;20029;-44
2021/12/30 02:16:42;;;;;;;60.80;14.00;;;;;;;10.13;100.00;100990.53;5020840;28;20061;-45
2021/12/30 02:19:08;;;;;;;63.53;15.73;;;;;;;10.11;100.00;100996.94;5033899;28;20025;-45
2021/12/30 02:21:33;;;;;;;54.83;15.45;;;;;;;10.10;100.00;100992.56;5033941;28;20026;-44
2021/12/30 02:23:59;;;;;;;56.05;15.13;;;;;;;10.12;100.00;101000.47;5034193;28;20030;-43
2021/12/30 02:26:25;;;;;;;69.05;15.65;;;;;;;10.14;100.00;101006.50;5032891;28;20037;-44
2021/12/30 02:28:50;;;;;;;54.55;14.73;;;;;;;10.15;100.00;101021.63;5034512;28;20040;-44
2021/12/30 02:31:18;;;;;;;49.15;14.52;;;;;;;10.20;100.00;101016.56;5031379;28;20109;-44
2021/12/30 02:33:45;;;;;;;52.35;16.13;;;;;;;10.21;100.00;101023.59;5014414;28;20068;-43
2021/12/30 02:36:13;;;;;;;52.55;14.95;;;;;;;10.21;100.00;101034.34;5014670;28;20033;-43
2021/12/30 02:38:45;;;;;;;43.28;14.50;;;;;;;10.20;100.00;101038.06;5014498;28;20491;-43
2021/12/30 02:41:14;;;;;;;53.40;15.77;;;;;;;10.19;100.00;101033.72;5017004;28;20480;-43
2021/12/30 02:43:40;;;;;;;60.45;15.13;;;;;;;10.19;100.00;101033.72;5033681;28;20041;-44
2021/12/30 02:46:05;;;;;;;70.53;16.90;;;;;;;10.18;100.00;101025.81;5033628;28;20021;-44
2021/12/30 02:48:33;;;;;;;72.85;15.70;;;;;;;10.16;100.00;101025.97;5029701;28;20034;-44
2021/12/30 02:51:01;;;;;;;65.85;15.23;;;;;;;10.18;100.00;101023.97;5033500;28;20552;-44
2021/12/30 02:53:27;;;;;;;69.68;14.43;;;;;;;10.20;100.00;101023.78;5033604;28;20432;-44
2021/12/30 02:55:53;;;;;;;64.40;15.38;;;;;;;10.22;100.00;101028.00;5033349;28;20030;-44
2021/12/30 02:58:20;;;;;;;63.22;16.20;;;;;;;10.29;100.00;101031.69;5033534;28;20124;-43
2021/12/30 03:00:48;;;;;;;97.07;18.45;;;;;;;10.27;100.00;101022.94;5033280;28;20096;-45
2021/12/30 03:03:22;;;;;;;73.15;20.02;;;;;;;10.29;100.00;101020.94;5028403;28;20490;-44
2021/12/30 03:05:48;;;;;;;78.60;18.05;;;;;;;10.37;100.00;101027.25;5032980;28;20029;-44
2021/12/30 03:08:14;;;;;;;87.40;19.27;;;;;;;10.38;100.00;101023.56;5033317;28;20033;-44
2021/12/30 03:10:39;;;;;;;73.28;19.92;;;;;;;10.41;100.00;101018.66;5033222;28;20441;-44
2021/12/30 03:13:07;;;;;;;81.43;20.10;;;;;;;10.41;100.00;101024.06;5033171;28;20060;-43
2021/12/30 03:15:33;;;;;;;84.90;19.30;;;;;;;10.42;100.00;101014.13;5032993;28;20048;-44
2021/12/30 03:17:58;;;;;;;78.60;20.13;;;;;;;10.39;100.00;101019.88;5033124;28;20049;-44
2021/12/30 03:20:23;;;;;;;78.45;18.48;;;;;;;10.37;100.00;101021.88;5021322;28;20036;-46
2021/12/30 03:22:49;;;;;;;87.85;18.45;;;;;;;10.33;100.00;101022.25;5032834;28;20060;-44
2021/12/30 03:25:16;;;;;;;82.30;18.27;;;;;;;10.31;100.00;101015.34;5032846;28;20068;-44
2021/12/30 03:27:41;;;;;;;84.05;17.80;;;;;;;10.30;100.00;101024.47;5033429;28;20045;-44
2021/12/30 03:30:11;;;;;;;78.35;18.33;;;;;;;10.25;100.00;101022.25;5044336;28;20116;-45
2021/12/30 03:32:36;;;;;;;81.50;18.35;;;;;;;10.24;100.00;101028.66;5032106;28;20477;-44
2021/12/30 03:35:03;;;;;;;81.18;18.42;;;;;;;10.23;100.00;101037.72;5027635;28;20033;-44
2021/12/30 03:37:28;;;;;;;83.45;18.75;;;;;;;10.23;100.00;101037.72;5032766;28;20033;-44
2021/12/30 03:39:54;;;;;;;77.90;18.10;;;;;;;10.23;100.00;101056.53;5032707;28;20037;-44
2021/12/30 03:42:19;;;;;;;83.47;18.80;;;;;;;10.24;100.00;101036.72;5032430;28;20029;-45
2021/12/30 03:44:45;;;;;;;87.15;19.20;;;;;;;10.25;100.00;101041.09;5032609;28;20030;-44
2021/12/30 03:47:15;;;;;;;77.07;20.17;;;;;;;10.25;100.00;101046.47;5032907;28;20029;-46
2021/12/30 03:49:44;;;;;;;79.05;20.77;;;;;;;10.27;100.00;101038.22;5032778;28;20096;-43
2021/12/30 03:52:11;;;;;;;65.63;18.98;;;;;;;10.29;100.00;101030.84;5024583;28;20041;-45
2021/12/30 03:54:36;;;;;;;82.10;19.63;;;;;;;10.30;100.00;101033.34;5032519;28;20013;-44
2021/12/30 03:57:01;;;;;;;82.70;16.20;;;;;;;10.35;100.00;101034.66;5032279;28;20083;-45
2021/12/30 03:59:27;;;;;;;59.08;14.63;;;;;;;10.37;100.00;101030.78;5032444;28;20108;-45
2021/12/30 04:01:52;;;;;;;61.47;14.88;;;;;;;10.39;100.00;101020.69;5032211;28;20025;-44
2021/12/30 04:04:17;;;;;;;55.63;14.25;;;;;;;10.44;100.00;101006.72;5032203;28;20377;-45
2021/12/30 04:06:43;;;;;;;74.68;16.40;;;;;;;10.45;100.00;101030.78;5026889;28;20030;-45
2021/12/30 04:09:08;;;;;;;58.15;14.50;;;;;;;10.47;100.00;101027.88;5016539;28;20064;-44
2021/12/30 04:11:35;;;;;;;47.53;12.38;;;;;;;10.50;100.00;101038.28;5032174;28;20099;-45
2021/12/30 04:14:04;;;;;;;46.47;13.15;;;;;;;10.50;100.00;101043.66;5031987;28;20029;-43
2021/12/30 04:16:30;;;;;;;56.03;13.63;;;;;;;10.52;100.00;101031.72;5032668;28;20033;-46
2021/12/30 04:18:55;;;;;;;50.92;10.07;;;;;;;10.56;100.00;101034.91;5031956;28;20468;-42
2021/12/30 04:21:21;;;;;;;57.83;12.00;;;;;;;10.60;100.00;101021.94;5032472;28;20108;-45
2021/12/30 04:23:47;;;;;;;45.55;8.18;;;;;;;10.65;100.00;101033.84;5020869;28;20485;-43
2021/12/30 04:26:12;;;;;;;49.72;8.07;;;;;;;10.69;100.00;101043.25;5032013;28;20057;-46
2021/12/30 04:28:38;;;;;;;50.53;7.55;;;;;;;10.73;100.00;101044.53;5031940;28;20018;-45
2021/12/30 04:31:04;;;;;;;52.50;7.32;;;;;;;10.79;100.00;101047.53;5032313;28;20596;-43
2021/12/30 04:33:29;;;;;;;41.00;6.57;;;;;;;10.80;100.00;101049.25;5031724;28;20026;-43
2021/12/30 04:35:56;;;;;;;36.08;5.70;;;;;;;10.82;100.00;101031.03;5032032;28;20192;-45
2021/12/30 04:38:23;;;;;;;39.28;6.22;;;;;;;10.83;100.00;101048.88;5029120;28;20026;-45
2021/12/30 04:40:49;;;;;;;46.80;6.70;;;;;;;10.82;100.00;101036.41;5031998;28;20113;-43
2021/12/30 04:43:14;;;;;;;35.70;6.63;;;;;;;10.82;100.00;101041.78;5034194;28;20059;-45
2021/12/30 04:45:39;;;;;;;46.38;6.78;;;;;;;10.80;100.00;101038.47;5036087;28;20037;-45
2021/12/30 04:48:05;;;;;;;35.92;7.28;;;;;;;10.77;100.00;101045.88;5036097;28;20033;-44
2021/12/30 04:50:30;;;;;;;40.08;8.35;;;;;;;10.75;100.00;101044.38;5036043;28;20038;-44
2021/12/30 04:52:56;;;;;;;50.50;9.27;;;;;;;10.71;100.00;101030.41;5035847;28;20325;-45
2021/12/30 04:55:21;;;;;;;40.85;7.15;;;;;;;10.68;100.00;101046.09;5021997;28;20037;-44
2021/12/30 04:57:46;;;;;;;42.38;8.13;;;;;;;10.64;100.00;101037.56;5030449;28;20026;-44
2021/12/30 05:00:13;;;;;;;41.45;9.23;;;;;;;10.62;100.00;101046.81;5035694;28;20485;-45
2021/12/30 05:05:16;;;;;;;45.05;10.27;;;;;;;10.58;100.00;101027.47;5035977;28;20454;-44
2021/12/30 05:07:41;;;;;;;37.55;10.48;;;;;;;10.59;100.00;101039.94;5035468;28;20108;-44
2021/12/30 05:10:07;;;;;;;33.03;9.70;;;;;;;10.59;100.00;101042.63;5035562;28;20048;-43
2021/12/30 05:12:32;;;;;;;37.80;8.95;;;;;;;10.61;100.00;101053.19;5035022;28;20029;-44
2021/12/30 05:14:57;;;;;;;41.83;8.90;;;;;;;10.60;100.00;101049.69;5029834;28;20334;-45
2021/12/30 05:17:28;;;;;;;44.00;9.10;;;;;;;10.60;100.00;101051.53;5035477;28;20485;-44
2021/12/30 05:19:53;;;;;;;45.65;9.27;;;;;;;10.57;100.00;101049.19;5035699;28;20116;-44
2021/12/30 05:22:19;;;;;;;33.50;8.15;;;;;;;10.51;100.00;101045.38;5035125;28;20072;-45
2021/12/30 05:24:44;;;;;;;46.63;9.52;;;;;;;10.48;100.00;101064.56;5035119;28;20442;-44
2021/12/30 05:27:09;;;;;;;46.63;9.70;;;;;;;10.45;100.00;101067.56;5034927;28;20592;-44
2021/12/30 05:29:35;;;;;;;34.13;8.70;;;;;;;10.44;100.00;101066.75;5035387;28;20108;-44
2021/12/30 05:32:00;;;;;;;42.35;8.75;;;;;;;10.44;100.00;101061.38;5033471;28;20025;-44
2021/12/30 05:34:25;;;;;;;42.55;9.07;;;;;;;10.46;100.00;101077.34;5035042;28;20385;-43
2021/12/30 05:36:51;;;;;;;46.72;8.77;;;;;;;10.48;100.00;101051.09;5034857;28;20496;-45
2021/12/30 05:39:16;;;;;;;37.95;7.72;;;;;;;10.48;100.00;101053.78;5034763;28;20033;-44
2021/12/30 05:41:41;;;;;;;37.90;8.63;;;;;;;10.47;100.00;101052.94;5034561;28;20037;-45
2021/12/30 05:44:07;;;;;;;52.90;7.57;;;;;;;10.48;100.00;101061.88;5034990;28;20029;-46
2021/12/30 05:46:32;;;;;;;45.58;6.50;;;;;;;10.51;100.00;101083.03;5033276;28;20390;-45
2021/12/30 05:48:57;;;;;;;57.25;8.05;;;;;;;10.52;100.00;101087.41;5026330;28;20123;-44
2021/12/30 05:51:23;;;;;;;38.92;5.97;;;;;;;10.57;100.00;101094.94;5033413;28;20091;-45
2021/12/30 05:53:48;;;;;;;45.17;6.72;;;;;;;10.58;100.00;101100.13;5034009;28;20440;-44
2021/12/30 05:56:13;;;;;;;52.92;6.93;;;;;;;10.63;100.00;101122.00;5033817;28;20578;-43
2021/12/30 05:58:39;;;;;;;38.22;5.95;;;;;;;10.65;100.00;101087.66;5034309;28;20491;-45
2021/12/30 06:01:04;;;;;;;37.58;6.00;;;;;;;10.66;100.00;101080.41;5034130;28;20091;-43
2021/12/30 06:03:29;;;;;;;41.20;5.75;;;;;;;10.67;100.00;101082.94;5029220;28;20021;-43
2021/12/30 06:05:54;;;;;;;41.05;5.53;;;;;;;10.69;100.00;101091.69;5033946;28;20361;-43
2021/12/30 06:08:20;;;;;;;30.35;4.57;;;;;;;10.74;100.00;101092.00;5034347;28;20496;-42
2021/12/30 06:10:45;;;;;;;33.17;5.20;;;;;;;10.82;100.00;101098.34;5034345;28;20083;-44
2021/12/30 06:13:12;;;;;;;30.42;6.47;;;;;;;10.83;100.00;101097.34;5034632;28;20025;-43
2021/12/30 06:15:37;;;;;;;25.63;5.32;;;;;;;10.88;100.00;101109.25;5032811;28;20062;-43
2021/12/30 06:18:03;;;;;;;31.10;5.80;;;;;;;10.92;100.00;101104.34;5032060;28;20029;-44
2021/12/30 06:20:29;;;;;;;30.30;5.00;;;;;;;10.96;100.00;101108.38;5033911;28;20065;-43
2021/12/30 06:22:55;;;;;;;29.33;5.55;;;;;;;10.97;100.00;101105.47;5034216;28;20080;-44
2021/12/30 06:25:20;;;;;;;30.75;5.18;;;;;;;10.97;100.00;101100.09;5033709;28;20459;-43
2021/12/30 06:27:45;;;;;;;25.73;5.57;;;;;;;10.91;100.00;101105.38;5033808;28;20064;-45
2021/12/30 06:30:11;;;;;;;35.30;5.70;;;;;;;10.86;100.00;101123.91;5033726;28;20026;-45
2021/12/30 06:32:37;;;;;;;42.17;6.97;;;;;;;10.80;100.00;101113.84;5033526;28;20044;-43
2021/12/30 06:35:03;;;;;;;39.25;6.80;;;;;;;10.75;100.00;101109.81;5031299;28;20117;-43
2021/12/30 06:37:29;;;;;;;33.35;7.38;;;;;;;10.72;100.00;101120.94;5033937;28;20032;-44
2021/12/30 06:39:55;;;;;;;32.05;8.10;;;;;;;10.69;100.00;101115.94;5033408;28;20057;-44
2021/12/30 06:42:20;;;;;;;37.75;7.63;;;;;;;10.66;100.00;101127.00;5034086;28;20452;-44
2021/12/30 06:44:45;;;;;;;30.70;9.00;;;;;;;10.61;100.00;101126.72;5033678;28;20362;-43
2021/12/30 06:47:11;;;;;;;39.33;9.75;;;;;;;10.58;100.00;101121.66;5033660;28;20389;-44
2021/12/30 06:49:37;;;;;;;30.58;9.02;;;;;;;10.56;100.00;101123.72;5029733;28;20030;-44
2021/12/30 06:52:04;;;;;;;34.65;8.63;;;;;;;10.52;100.00;101131.28;5031550;28;20477;-44
2021/12/30 06:54:30;;;;;;;32.67;7.65;;;;;;;10.52;100.00;101128.59;5033356;28;20072;-43
2021/12/30 06:56:55;;;;;;;29.35;7.43;;;;;;;10.52;100.00;101135.84;5033227;28;20485;-44
2021/12/30 06:59:21;;;;;;;37.30;8.80;;;;;;;10.51;100.00;101134.19;5035179;28;20053;-44
2021/12/30 07:01:47;;;;;;;43.70;9.38;;;;;;;10.50;100.00;101141.38;5032685;28;20064;-44
2021/12/30 07:04:13;;;;;;;45.60;9.30;;;;;;;10.53;100.00;101153.66;5032915;28;20057;-44
2021/12/30 07:06:39;;;;;;;43.08;10.60;;;;;;;10.51;100.00;101142.25;5022225;28;20518;-44
2021/12/30 07:09:04;;;;;;;56.15;12.20;;;;;;;10.51;100.00;101153.00;5021556;28;20124;-44
2021/12/30 07:11:30;;;;;;;66.25;10.65;;;;;;;10.52;100.00;101146.59;5032911;28;20041;-44
2021/12/30 07:13:55;;;;;;;76.22;13.63;;;;;;;10.52;100.00;101139.38;5037499;28;20440;-43
2021/12/30 07:16:20;;;;;;;68.97;14.07;;;;;;;10.50;100.00;101135.16;5033264;28;20037;-45
2021/12/30 07:18:46;;;;;;;64.72;11.27;;;;;;;10.48;100.00;101137.22;5033077;28;20025;-44
2021/12/30 07:21:11;;;;;;;90.40;13.95;;;;;;;10.44;100.00;101146.63;5030171;28;20029;-44
2021/12/30 07:23:36;;;;;;;81.40;12.48;;;;;;;10.38;100.00;101141.97;5013945;28;20045;-43
2021/12/30 07:26:02;;;;;;;82.93;12.65;;;;;;;10.33;100.00;101137.94;5010383;28;20128;-43
2021/12/30 07:28:27;;;;;;;69.82;12.90;;;;;;;10.32;100.00;101149.72;5026696;28;20363;-43
2021/12/30 07:30:52;;;;;;;81.95;10.20;;;;;;;10.31;100.00;101157.94;5027268;28;20021;-43
2021/12/30 07:33:18;;;;;;;94.07;14.43;;;;;;;10.31;100.00;101166.00;5020539;28;20033;-43
2021/12/30 07:35:43;;;;;;;80.25;11.77;;;;;;;10.32;100.00;101160.47;5028789;28;20117;-42
2021/12/30 07:38:09;;;;;;;73.57;13.00;;;;;;;10.32;100.00;101179.31;5029732;28;20409;-43
2021/12/30 07:40:34;;;;;;;86.82;12.73;;;;;;;10.30;100.00;101175.94;5029804;28;20035;-43
2021/12/30 07:43:00;;;;;;;72.57;11.32;;;;;;;10.31;100.00;101191.06;5029754;28;20037;-44
2021/12/30 07:45:25;;;;;;;86.35;13.25;;;;;;;10.32;100.00;101202.66;5029747;28;20477;-43
2021/12/30 07:47:51;;;;;;;82.68;12.50;;;;;;;10.33;100.00;101193.59;5033728;28;20033;-44
2021/12/30 07:50:17;;;;;;;89.47;12.52;;;;;;;10.39;100.00;101187.50;5030933;28;20033;-44
2021/12/30 07:52:42;;;;;;;88.32;13.02;;;;;;;10.46;100.00;101204.66;5034130;28;20025;-43
2021/12/30 07:55:09;;;;;;;92.38;13.48;;;;;;;10.51;100.00;101206.84;5040965;28;20079;-43
2021/12/30 07:57:35;;;;;;;77.10;12.63;;;;;;;10.57;100.00;101194.53;5028410;28;20413;-43
2021/12/30 08:00:01;;;;;;;84.68;11.90;;;;;;;10.59;100.00;101198.72;5029179;28;20056;-43
2021/12/30 08:02:26;;;;;;;79.00;11.68;;;;;;;10.61;100.00;101212.88;5029482;28;20037;-43
2021/12/30 08:04:51;;;;;;;79.32;11.60;;;;;;;10.64;100.00;101209.00;5029677;28;20037;-43
2021/12/30 08:07:21;;;;;;;79.35;10.77;;;;;;;10.64;100.00;101209.81;5029228;28;20025;-44
2021/12/30 08:09:46;;;;;;;91.60;10.82;;;;;;;10.65;100.00;101219.56;5030552;28;20065;-45
2021/12/30 08:12:12;;;;;;;103.05;11.88;;;;;;;10.64;100.00;101204.44;5030066;28;20053;-44
2021/12/30 08:14:37;;;;;;;69.75;9.95;;;;;;;10.64;100.00;101217.91;5031865;28;20087;-43
2021/12/30 08:17:02;;;;;;;90.43;14.05;;;;;;;10.65;100.00;101227.63;5031818;28;20025;-44
2021/12/30 08:19:28;;;;;;;97.50;11.00;;;;;;;10.64;100.00;101220.59;5032140;28;20047;-45
2021/12/30 08:21:53;;;;;;;96.30;10.70;;;;;;;10.66;100.00;101215.00;5031995;28;20057;-46
2021/12/30 08:24:18;;;;;;;95.38;12.77;;;;;;;10.65;100.00;101226.81;5032179;28;20029;-44
2021/12/30 08:26:44;;;;;;;106.00;13.05;;;;;;;10.66;100.00;101229.31;5031938;28;20045;-45
2021/12/30 08:29:10;;;;;;;100.28;11.23;;;;;;;10.64;100.00;101234.03;5030056;28;20140;-44
2021/12/30 08:31:36;;;;;;;95.97;12.75;;;;;;;10.64;100.00;101231.34;5028477;28;20060;-45
2021/12/30 08:34:04;;;;;;;106.53;12.95;;;;;;;10.66;100.00;101233.84;5031881;28;20045;-44
2021/12/30 08:36:29;;;;;;;95.80;11.13;;;;;;;10.65;100.00;101227.63;5031315;28;20022;-44
2021/12/30 08:38:54;;;;;;;87.43;12.00;;;;;;;10.66;100.00;101232.00;5031160;28;20638;-44
2021/12/30 08:41:20;;;;;;;93.72;11.10;;;;;;;10.67;100.00;101233.69;5031040;28;20433;-44
2021/12/30 08:43:45;;;;;;;90.97;10.68;;;;;;;10.67;100.00;101233.69;5031321;28;20116;-44
2021/12/30 08:46:10;;;;;;;98.93;10.48;;;;;;;10.70;100.00;101237.91;5023237;28;20053;-44
2021/12/30 08:48:37;;;;;;;98.18;10.90;;;;;;;10.71;100.00;101236.88;5014195;28;20025;-45
2021/12/30 08:51:03;;;;;;;93.90;11.05;;;;;;;10.72;100.00;101252.88;5031956;28;20100;-45
2021/12/30 08:53:29;;;;;;;84.75;9.18;;;;;;;10.73;100.00;101257.22;5026501;28;20510;-43
2021/12/30 08:55:55;;;;;;;100.97;10.52;;;;;;;10.76;100.00;101258.72;5031707;28;20033;-45
2021/12/30 08:58:20;;;;;;;95.43;10.57;;;;;;;10.76;100.00;101254.19;5029674;28;20104;-43
2021/12/30 09:00:49;;;;;;;82.43;9.18;;;;;;;10.79;100.00;101258.38;5031082;28;20500;-45
2021/12/30 09:03:15;;;;;;;;;;;;;;;10.81;100.00;101269.00;5040209;28;20546;-42
2021/12/30 09:05:44;;;;;;;77.22;9.85;;;;;;;10.84;100.00;101260.56;5051793;28;20356;-43
2021/12/30 09:08:09;;;;;;;88.65;9.35;;;;;;;10.84;100.00;101265.94;5050671;28;20057;-45
2021/12/30 09:10:40;;;;;;;77.80;9.23;;;;;;;10.88;100.00;101272.69;5051619;28;20052;-44
2021/12/30 09:13:07;;;;;;;74.97;9.02;;;;;;;10.89;100.00;101248.25;5051842;28;20037;-45
2021/12/30 09:15:33;;;;;;;76.88;9.32;;;;;;;10.91;100.00;101253.47;5052112;28;20083;-45
2021/12/30 09:17:58;;;;;;;72.07;7.97;;;;;;;10.89;100.00;101253.63;5051892;28;20033;-45
2021/12/30 09:20:24;;;;;;;70.68;7.53;;;;;;;10.89;100.00;101255.50;5051593;28;20025;-44
2021/12/30 09:22:52;;;;;;;72.57;8.43;;;;;;;10.89;100.00;101253.63;5051711;28;20041;-44
2021/12/30 09:25:19;;;;;;;74.90;9.50;;;;;;;10.92;100.00;101266.75;5051979;28;20428;-44
2021/12/30 09:27:45;;;;;;;69.78;8.80;;;;;;;10.93;100.00;101251.44;5051474;28;20094;-42
2021/12/30 09:30:12;;;;;;;65.20;7.65;;;;;;;10.94;100.00;101283.56;5053921;28;20392;-44
2021/12/30 09:32:37;;;;;;;82.68;9.32;;;;;;;10.94;100.00;101293.50;5055334;28;20384;-44
2021/12/30 09:35:03;;;;;;;78.35;8.43;;;;;;;10.93;100.00;101281.91;5053995;28;20025;-45
2021/12/30 09:37:29;;;;;;;67.38;7.78;;;;;;;10.92;100.00;101287.47;5051681;28;20446;-43
2021/12/30 09:39:55;;;;;;;52.70;7.28;;;;;;;10.93;100.00;101283.78;5035308;28;20363;-44
2021/12/30 09:42:20;;;;;;;75.47;8.27;;;;;;;10.90;100.00;101276.88;5035591;28;20435;-43
2021/12/30 09:44:46;;;;;;;73.72;9.13;;;;;;;10.92;100.00;101300.91;5035374;28;20381;-44
2021/12/30 09:47:12;;;;;;;76.80;9.25;;;;;;;10.92;100.00;101303.63;5035245;28;20021;-45
2021/12/30 09:49:37;;;;;;;64.10;8.18;;;;;;;10.95;100.00;101312.22;5035030;28;20152;-44
2021/12/30 09:52:03;;;;;;;75.40;7.93;;;;;;;10.95;100.00;101306.81;5035128;28;20029;-43
2021/12/30 09:54:29;;;;;;;73.25;9.30;;;;;;;10.98;100.00;101301.09;5029916;28;20029;-41
2021/12/30 09:58:07;;;;;;;99.25;12.52;;;;;;;11.00;100.00;101300.88;5064538;28;20779;-43
2021/12/30 10:00:33;;;;;;;91.93;9.18;;;;;;;11.04;100.00;101318.41;5068163;28;20029;-44
2021/12/30 10:02:59;;;;;;;69.80;8.75;;;;;;;11.08;100.00;101310.81;5068149;28;20486;-45
2021/12/30 10:05:27;;;;;;;83.20;8.70;;;;;;;11.10;100.00;101292.63;5061945;28;20096;-45
2021/12/30 10:08:19;;;;;;;66.72;7.72;;;;;;;11.12;100.00;101302.19;5059547;28;20037;-45
2021/12/30 10:10:47;;;;;;;67.40;8.38;;;;;;;11.13;100.00;101285.00;5065521;28;20491;-43
2021/12/30 10:13:24;;;;;;;78.28;8.90;;;;;;;11.16;100.00;101308.06;5082225;28;20474;-44
2021/12/30 10:15:56;;;;;;;62.65;7.80;;;;;;;11.14;100.00;101292.09;5089698;28;20093;-46
2021/12/30 10:18:23;;;;;;;58.38;7.72;;;;;;;11.13;100.00;101289.56;5089715;28;20028;-44
2021/12/30 10:20:50;;;;;;;59.42;7.53;;;;;;;11.14;100.00;101302.03;5079795;28;20024;-45
2021/12/30 10:23:21;;;;;;;64.55;8.25;;;;;;;11.11;100.00;101297.84;5064085;28;20033;-44
2021/12/30 10:25:51;;;;;;;72.90;8.35;;;;;;;11.09;100.00;101307.94;5052547;28;20087;-42
2021/12/30 10:28:31;;;;;;;64.72;8.70;;;;;;;11.08;100.00;101300.84;5056868;28;20473;-44
2021/12/30 10:31:10;;;;;;;52.35;7.78;;;;;;;11.04;100.00;101307.63;5076971;28;20384;-44
2021/12/30 10:33:44;;;;;;;56.95;7.38;;;;;;;11.05;100.00;101292.31;5069101;28;20126;-46
2021/12/30 10:36:17;;;;;;;59.70;6.80;;;;;;;11.03;100.00;101314.00;5068888;28;20392;-44
2021/12/30 10:38:43;;;;;;;76.47;9.88;;;;;;;11.02;100.00;101287.25;5058092;28;20151;-44
2021/12/30 10:41:08;;;;;;;58.95;6.43;;;;;;;11.02;100.00;101295.34;5050519;28;20127;-44
2021/12/30 10:46:14;;;;;;;51.63;6.88;;;;;;;11.02;100.00;101312.34;5055772;28;20082;-43
2021/12/30 10:48:53;;;;;;;56.45;7.72;;;;;;;11.03;100.00;101297.84;5054464;28;20121;-42
2021/12/30 10:51:26;;;;;;;56.28;8.07;;;;;;;11.05;100.00;101306.59;5051051;28;20029;-44
2021/12/30 10:53:53;;;;;;;62.58;8.18;;;;;;;11.08;100.00;101305.41;5047502;28;20509;-43
2021/12/30 10:56:29;;;;;;;51.70;8.32;;;;;;;11.11;100.00;101307.75;5046858;28;20069;-44
2021/12/30 10:59:11;;;;;;;62.42;7.72;;;;;;;11.13;100.00;101303.88;5051884;28;20500;-45
2021/12/30 11:01:45;;;;;;;55.67;7.55;;;;;;;11.14;100.00;101310.97;5048305;28;20128;-44
2021/12/30 11:04:10;;;;;;;62.63;8.32;;;;;;;11.13;100.00;101319.19;5048162;28;20120;-44
2021/12/30 11:06:36;;;;;;;56.83;7.35;;;;;;;11.14;100.00;101315.50;5047084;28;20029;-44
2021/12/30 11:09:17;;;;;;;62.97;7.63;;;;;;;11.11;100.00;101332.88;5037653;28;20044;-45
2021/12/30 11:11:49;;;;;;;60.95;7.40;;;;;;;11.13;100.00;101338.06;5035239;28;20071;-45